sensor_id;sensor_type;location;lat;lon;timestamp;temperature;humidity
34829;DHT22;21042;47.620;12.188;2023-07-28T00:01:58;13.90;99.90
34829;DHT22;21042;47.620;12.188;2023-07-28T00:04:24;13.90;99.90
34829;DHT22;21042;47.620;12.188;2023-07-28T00:06:51;13.90;99.90
34829;DHT22;21042;47.620;12.188;2023-07-28T00:09:18;13.90;99.90
34829;DHT22;21042;47.620;12.188;2023-07-28T00:11:45;14.00;99.90
34829;DHT22;21042;47.620;12.188;2023-07-28T00:14:12;13.80;99.90
34829;DHT22;21042;47.620;12.188;2023-07-28T00:16:38;13.80;99.90
34829;DHT22;21042;47.620;12.188;2023-07-28T00:19:05;13.70;99.90
34829;DHT22;21042;47.620;12.188;2023-07-28T00:21:32;13.70;99.90
34829;DHT22;21042;47.620;12.188;2023-07-28T00:23:59;13.60;99.90
34829;DHT22;21042;47.620;12.188;2023-07-28T00:26:26;13.60;99.90
34829;DHT22;21042;47.620;12.188;2023-07-28T00:28:52;13.60;99.90
34829;DHT22;21042;47.620;12.188;2023-07-28T00:31:19;13.50;99.90
34829;DHT22;21042;47.620;12.188;2023-07-28T00:33:46;13.50;99.90
34829;DHT22;21042;47.620;12.188;2023-07-28T00:36:13;13.50;99.90
34829;DHT22;21042;47.620;12.188;2023-07-28T00:38:39;13.50;99.90
34829;DHT22;21042;47.620;12.188;2023-07-28T00:41:06;13.40;99.90
34829;DHT22;21042;47.620;12.188;2023-07-28T00:43:33;13.40;99.90
34829;DHT22;21042;47.620;12.188;2023-07-28T00:46:00;13.40;99.90
34829;DHT22;21042;47.620;12.188;2023-07-28T00:48:27;13.40;99.90
34829;DHT22;21042;47.620;12.188;2023-07-28T00:50:54;13.40;99.90
34829;DHT22;21042;47.620;12.188;2023-07-28T00:53:22;13.30;99.90
34829;DHT22;21042;47.620;12.188;2023-07-28T00:55:50;13.40;99.90
34829;DHT22;21042;47.620;12.188;2023-07-28T00:58:18;13.40;99.90
34829;DHT22;21042;47.620;12.188;2023-07-28T01:00:45;13.40;99.90
34829;DHT22;21042;47.620;12.188;2023-07-28T01:03:12;13.40;99.90
34829;DHT22;21042;47.620;12.188;2023-07-28T01:08:42;13.40;99.90
34829;DHT22;21042;47.620;12.188;2023-07-28T01:11:12;13.40;99.90
34829;DHT22;21042;47.620;12.188;2023-07-28T01:13:39;13.40;99.90
34829;DHT22;21042;47.620;12.188;2023-07-28T01:16:06;13.30;99.90
34829;DHT22;21042;47.620;12.188;2023-07-28T01:18:34;13.30;99.90
34829;DHT22;21042;47.620;12.188;2023-07-28T01:21:04;13.30;99.90
34829;DHT22;21042;47.620;12.188;2023-07-28T01:26:34;13.20;99.90
34829;DHT22;21042;47.620;12.188;2023-07-28T01:29:06;13.10;99.90
34829;DHT22;21042;47.620;12.188;2023-07-28T01:31:33;12.90;99.90
34829;DHT22;21042;47.620;12.188;2023-07-28T01:34:00;12.80;99.90
34829;DHT22;21042;47.620;12.188;2023-07-28T01:36:27;13.00;99.90
34829;DHT22;21042;47.620;12.188;2023-07-28T01:38:54;12.80;99.90
34829;DHT22;21042;47.620;12.188;2023-07-28T01:41:21;12.70;99.90
34829;DHT22;21042;47.620;12.188;2023-07-28T01:43:48;12.70;99.90
34829;DHT22;21042;47.620;12.188;2023-07-28T01:46:14;12.70;99.90
34829;DHT22;21042;47.620;12.188;2023-07-28T01:48:41;12.60;99.90
34829;DHT22;21042;47.620;12.188;2023-07-28T01:51:08;12.60;99.90
34829;DHT22;21042;47.620;12.188;2023-07-28T01:53:35;12.50;99.90
34829;DHT22;21042;47.620;12.188;2023-07-28T01:56:01;12.60;99.90
34829;DHT22;21042;47.620;12.188;2023-07-28T01:58:28;12.40;99.90
34829;DHT22;21042;47.620;12.188;2023-07-28T02:00:55;12.30;99.90
34829;DHT22;21042;47.620;12.188;2023-07-28T02:03:22;12.30;99.90
34829;DHT22;21042;47.620;12.188;2023-07-28T02:05:49;12.30;99.90
34829;DHT22;21042;47.620;12.188;2023-07-28T02:08:16;12.30;99.90
34829;DHT22;21042;47.620;12.188;2023-07-28T02:10:44;12.30;99.90
34829;DHT22;21042;47.620;12.188;2023-07-28T02:13:11;12.20;99.90
34829;DHT22;21042;47.620;12.188;2023-07-28T02:15:38;12.20;99.90
34829;DHT22;21042;47.620;12.188;2023-07-28T02:18:07;12.30;99.90
34829;DHT22;21042;47.620;12.188;2023-07-28T02:20:34;12.20;99.90
34829;DHT22;21042;47.620;12.188;2023-07-28T02:23:02;12.20;99.90
34829;DHT22;21042;47.620;12.188;2023-07-28T02:25:29;12.10;99.90
34829;DHT22;21042;47.620;12.188;2023-07-28T02:27:57;12.10;99.90
34829;DHT22;21042;47.620;12.188;2023-07-28T02:30:24;12.10;99.90
34829;DHT22;21042;47.620;12.188;2023-07-28T02:32:51;12.10;99.90
34829;DHT22;21042;47.620;12.188;2023-07-28T02:35:18;12.10;99.90
34829;DHT22;21042;47.620;12.188;2023-07-28T02:37:47;12.10;99.90
34829;DHT22;21042;47.620;12.188;2023-07-28T02:40:14;12.10;99.90
34829;DHT22;21042;47.620;12.188;2023-07-28T02:42:41;12.10;99.90
34829;DHT22;21042;47.620;12.188;2023-07-28T02:45:08;12.00;99.90
34829;DHT22;21042;47.620;12.188;2023-07-28T02:47:37;12.00;99.90
34829;DHT22;21042;47.620;12.188;2023-07-28T02:50:04;12.00;99.90
34829;DHT22;21042;47.620;12.188;2023-07-28T02:52:32;12.00;99.90
34829;DHT22;21042;47.620;12.188;2023-07-28T02:54:58;12.20;99.90
34829;DHT22;21042;47.620;12.188;2023-07-28T02:57:26;12.00;99.90
34829;DHT22;21042;47.620;12.188;2023-07-28T02:59:53;12.00;99.90
34829;DHT22;21042;47.620;12.188;2023-07-28T03:02:20;12.00;99.90
34829;DHT22;21042;47.620;12.188;2023-07-28T03:04:48;12.10;99.90
34829;DHT22;21042;47.620;12.188;2023-07-28T03:07:15;12.10;99.90
34829;DHT22;21042;47.620;12.188;2023-07-28T03:09:45;12.20;99.90
34829;DHT22;21042;47.620;12.188;2023-07-28T03:12:12;12.10;99.90
34829;DHT22;21042;47.620;12.188;2023-07-28T03:14:40;12.10;99.90
34829;DHT22;21042;47.620;12.188;2023-07-28T03:17:07;12.10;99.90
34829;DHT22;21042;47.620;12.188;2023-07-28T03:19:34;12.10;99.90
34829;DHT22;21042;47.620;12.188;2023-07-28T03:22:00;12.10;99.90
34829;DHT22;21042;47.620;12.188;2023-07-28T03:24:27;12.10;99.90
34829;DHT22;21042;47.620;12.188;2023-07-28T03:26:54;12.00;99.90
34829;DHT22;21042;47.620;12.188;2023-07-28T03:29:21;12.00;99.90
34829;DHT22;21042;47.620;12.188;2023-07-28T03:31:48;12.10;99.90
34829;DHT22;21042;47.620;12.188;2023-07-28T03:34:16;12.00;99.90
34829;DHT22;21042;47.620;12.188;2023-07-28T03:36:43;12.10;99.90
34829;DHT22;21042;47.620;12.188;2023-07-28T03:39:10;12.10;99.90
34829;DHT22;21042;47.620;12.188;2023-07-28T03:41:36;12.10;99.90
34829;DHT22;21042;47.620;12.188;2023-07-28T03:44:03;12.10;99.90
34829;DHT22;21042;47.620;12.188;2023-07-28T03:46:30;12.10;99.90
34829;DHT22;21042;47.620;12.188;2023-07-28T03:48:57;12.10;99.90
34829;DHT22;21042;47.620;12.188;2023-07-28T03:51:25;12.20;99.90
34829;DHT22;21042;47.620;12.188;2023-07-28T03:53:52;12.40;99.90
34829;DHT22;21042;47.620;12.188;2023-07-28T03:56:19;12.20;99.90
34829;DHT22;21042;47.620;12.188;2023-07-28T03:58:45;12.30;99.90
34829;DHT22;21042;47.620;12.188;2023-07-28T04:01:12;12.30;99.90
34829;DHT22;21042;47.620;12.188;2023-07-28T04:03:40;12.30;99.90
34829;DHT22;21042;47.620;12.188;2023-07-28T04:06:10;12.30;99.90
34829;DHT22;21042;47.620;12.188;2023-07-28T04:08:38;12.30;99.90
34829;DHT22;21042;47.620;12.188;2023-07-28T04:11:04;12.40;99.90
34829;DHT22;21042;47.620;12.188;2023-07-28T04:13:32;12.40;99.90
34829;DHT22;21042;47.620;12.188;2023-07-28T04:15:59;12.40;99.90
34829;DHT22;21042;47.620;12.188;2023-07-28T04:18:26;12.40;99.90
34829;DHT22;21042;47.620;12.188;2023-07-28T04:20:53;12.40;99.90
34829;DHT22;21042;47.620;12.188;2023-07-28T04:23:19;12.50;99.90
34829;DHT22;21042;47.620;12.188;2023-07-28T04:25:46;12.50;99.90
34829;DHT22;21042;47.620;12.188;2023-07-28T04:28:13;12.50;99.90
34829;DHT22;21042;47.620;12.188;2023-07-28T04:30:40;12.60;99.90
34829;DHT22;21042;47.620;12.188;2023-07-28T04:33:15;12.60;99.90
34829;DHT22;21042;47.620;12.188;2023-07-28T04:35:42;12.70;99.90
34829;DHT22;21042;47.620;12.188;2023-07-28T04:38:19;12.80;99.90
34829;DHT22;21042;47.620;12.188;2023-07-28T04:40:50;12.90;99.90
34829;DHT22;21042;47.620;12.188;2023-07-28T04:43:22;13.10;99.90
34829;DHT22;21042;47.620;12.188;2023-07-28T04:45:53;13.20;99.90
34829;DHT22;21042;47.620;12.188;2023-07-28T04:48:22;13.30;99.90
34829;DHT22;21042;47.620;12.188;2023-07-28T04:50:49;13.30;99.90
34829;DHT22;21042;47.620;12.188;2023-07-28T04:53:36;13.30;99.90
34829;DHT22;21042;47.620;12.188;2023-07-28T04:56:14;13.40;99.90
34829;DHT22;21042;47.620;12.188;2023-07-28T04:58:41;13.40;99.90
34829;DHT22;21042;47.620;12.188;2023-07-28T05:01:08;13.50;99.90
34829;DHT22;21042;47.620;12.188;2023-07-28T05:03:36;13.50;99.90
34829;DHT22;21042;47.620;12.188;2023-07-28T05:06:22;13.70;99.90
34829;DHT22;21042;47.620;12.188;2023-07-28T05:08:49;13.70;99.90
34829;DHT22;21042;47.620;12.188;2023-07-28T05:11:22;13.80;99.90
34829;DHT22;21042;47.620;12.188;2023-07-28T05:13:49;13.80;99.90
34829;DHT22;21042;47.620;12.188;2023-07-28T05:16:16;13.80;99.90
34829;DHT22;21042;47.620;12.188;2023-07-28T05:19:01;13.80;99.90
34829;DHT22;21042;47.620;12.188;2023-07-28T05:22:06;14.00;99.90
34829;DHT22;21042;47.620;12.188;2023-07-28T05:24:49;14.00;99.90
34829;DHT22;21042;47.620;12.188;2023-07-28T05:27:20;13.90;99.90
34829;DHT22;21042;47.620;12.188;2023-07-28T05:29:47;14.20;99.90
34829;DHT22;21042;47.620;12.188;2023-07-28T05:32:14;13.80;99.90
34829;DHT22;21042;47.620;12.188;2023-07-28T05:35:01;13.60;99.90
34829;DHT22;21042;47.620;12.188;2023-07-28T05:37:28;13.60;99.90
34829;DHT22;21042;47.620;12.188;2023-07-28T05:39:55;13.70;99.90
34829;DHT22;21042;47.620;12.188;2023-07-28T05:42:22;13.70;99.90
34829;DHT22;21042;47.620;12.188;2023-07-28T05:44:50;13.70;99.90
34829;DHT22;21042;47.620;12.188;2023-07-28T05:47:20;13.70;99.90
34829;DHT22;21042;47.620;12.188;2023-07-28T05:49:47;13.80;99.90
34829;DHT22;21042;47.620;12.188;2023-07-28T05:52:14;13.90;99.90
34829;DHT22;21042;47.620;12.188;2023-07-28T05:54:41;14.00;99.90
34829;DHT22;21042;47.620;12.188;2023-07-28T05:57:07;14.10;99.90
34829;DHT22;21042;47.620;12.188;2023-07-28T05:59:34;14.10;99.90
34829;DHT22;21042;47.620;12.188;2023-07-28T06:02:01;14.00;99.90
34829;DHT22;21042;47.620;12.188;2023-07-28T06:04:43;14.10;99.90
34829;DHT22;21042;47.620;12.188;2023-07-28T06:07:10;14.10;99.90
34829;DHT22;21042;47.620;12.188;2023-07-28T06:09:37;14.20;99.90
34829;DHT22;21042;47.620;12.188;2023-07-28T06:12:05;14.20;99.90
34829;DHT22;21042;47.620;12.188;2023-07-28T06:14:32;14.30;99.90
34829;DHT22;21042;47.620;12.188;2023-07-28T06:16:59;14.40;99.90
34829;DHT22;21042;47.620;12.188;2023-07-28T06:19:29;14.50;99.90
34829;DHT22;21042;47.620;12.188;2023-07-28T06:21:56;14.50;99.90
34829;DHT22;21042;47.620;12.188;2023-07-28T06:24:23;14.50;99.90
34829;DHT22;21042;47.620;12.188;2023-07-28T06:26:50;14.40;99.90
34829;DHT22;21042;47.620;12.188;2023-07-28T06:29:17;14.50;99.90
34829;DHT22;21042;47.620;12.188;2023-07-28T06:31:44;14.40;99.90
34829;DHT22;21042;47.620;12.188;2023-07-28T06:34:11;14.40;99.90
34829;DHT22;21042;47.620;12.188;2023-07-28T06:36:38;14.40;99.90
34829;DHT22;21042;47.620;12.188;2023-07-28T06:39:04;14.40;99.90
34829;DHT22;21042;47.620;12.188;2023-07-28T06:41:31;14.30;99.90
34829;DHT22;21042;47.620;12.188;2023-07-28T06:44:00;14.40;99.90
34829;DHT22;21042;47.620;12.188;2023-07-28T06:46:28;14.50;99.90
34829;DHT22;21042;47.620;12.188;2023-07-28T06:48:56;14.60;99.90
34829;DHT22;21042;47.620;12.188;2023-07-28T06:51:23;14.70;99.90
34829;DHT22;21042;47.620;12.188;2023-07-28T06:53:49;14.80;99.90
34829;DHT22;21042;47.620;12.188;2023-07-28T06:56:17;14.90;99.90
34829;DHT22;21042;47.620;12.188;2023-07-28T06:58:43;14.80;99.90
34829;DHT22;21042;47.620;12.188;2023-07-28T07:01:20;14.80;99.90
34829;DHT22;21042;47.620;12.188;2023-07-28T07:03:48;14.90;99.90
34829;DHT22;21042;47.620;12.188;2023-07-28T07:06:15;14.80;99.90
34829;DHT22;21042;47.620;12.188;2023-07-28T07:08:42;14.90;99.90
34829;DHT22;21042;47.620;12.188;2023-07-28T07:11:10;14.90;99.90
34829;DHT22;21042;47.620;12.188;2023-07-28T07:13:37;14.90;99.90
34829;DHT22;21042;47.620;12.188;2023-07-28T07:16:03;15.00;99.90
34829;DHT22;21042;47.620;12.188;2023-07-28T07:18:30;14.90;99.90
34829;DHT22;21042;47.620;12.188;2023-07-28T07:21:01;15.00;99.90
34829;DHT22;21042;47.620;12.188;2023-07-28T07:23:29;15.10;99.90
34829;DHT22;21042;47.620;12.188;2023-07-28T07:25:56;15.20;99.90
34829;DHT22;21042;47.620;12.188;2023-07-28T07:28:23;15.40;99.90
34829;DHT22;21042;47.620;12.188;2023-07-28T07:30:49;15.60;99.90
34829;DHT22;21042;47.620;12.188;2023-07-28T07:33:16;15.70;99.90
34829;DHT22;21042;47.620;12.188;2023-07-28T07:35:43;15.90;99.90
34829;DHT22;21042;47.620;12.188;2023-07-28T07:38:10;16.10;99.90
34829;DHT22;21042;47.620;12.188;2023-07-28T07:40:36;16.00;99.90
34829;DHT22;21042;47.620;12.188;2023-07-28T07:43:03;16.10;99.90
34829;DHT22;21042;47.620;12.188;2023-07-28T07:45:31;16.00;99.90
34829;DHT22;21042;47.620;12.188;2023-07-28T07:47:58;16.00;99.90
34829;DHT22;21042;47.620;12.188;2023-07-28T07:50:25;16.20;99.90
34829;DHT22;21042;47.620;12.188;2023-07-28T07:52:51;16.20;99.90
34829;DHT22;21042;47.620;12.188;2023-07-28T07:55:18;16.20;99.90
34829;DHT22;21042;47.620;12.188;2023-07-28T07:57:45;16.10;99.90
34829;DHT22;21042;47.620;12.188;2023-07-28T08:00:12;16.40;99.90
34829;DHT22;21042;47.620;12.188;2023-07-28T08:02:40;16.50;99.90
34829;DHT22;21042;47.620;12.188;2023-07-28T08:05:10;16.90;99.90
34829;DHT22;21042;47.620;12.188;2023-07-28T08:07:37;17.10;99.90
34829;DHT22;21042;47.620;12.188;2023-07-28T08:10:04;17.20;99.90
34829;DHT22;21042;47.620;12.188;2023-07-28T08:12:31;17.50;99.90
34829;DHT22;21042;47.620;12.188;2023-07-28T08:14:59;17.50;99.90
34829;DHT22;21042;47.620;12.188;2023-07-28T08:17:25;17.60;99.90
34829;DHT22;21042;47.620;12.188;2023-07-28T08:19:52;17.60;99.90
34829;DHT22;21042;47.620;12.188;2023-07-28T08:22:19;17.70;99.90
34829;DHT22;21042;47.620;12.188;2023-07-28T08:24:46;17.80;99.90
34829;DHT22;21042;47.620;12.188;2023-07-28T08:27:12;18.10;99.90
34829;DHT22;21042;47.620;12.188;2023-07-28T08:29:39;18.40;99.90
34829;DHT22;21042;47.620;12.188;2023-07-28T08:32:06;18.50;99.90
34829;DHT22;21042;47.620;12.188;2023-07-28T08:34:33;18.60;99.90
34829;DHT22;21042;47.620;12.188;2023-07-28T08:37:00;18.70;99.90
34829;DHT22;21042;47.620;12.188;2023-07-28T08:39:27;19.00;99.90
34829;DHT22;21042;47.620;12.188;2023-07-28T08:42:03;19.20;99.90
34829;DHT22;21042;47.620;12.188;2023-07-28T08:44:34;19.30;99.90
34829;DHT22;21042;47.620;12.188;2023-07-28T08:47:05;19.40;99.90
34829;DHT22;21042;47.620;12.188;2023-07-28T08:49:32;19.50;99.90
34829;DHT22;21042;47.620;12.188;2023-07-28T08:52:03;19.60;99.90
34829;DHT22;21042;47.620;12.188;2023-07-28T08:54:30;19.80;99.90
34829;DHT22;21042;47.620;12.188;2023-07-28T08:56:58;20.00;99.90
34829;DHT22;21042;47.620;12.188;2023-07-28T08:59:25;20.10;99.90
34829;DHT22;21042;47.620;12.188;2023-07-28T09:01:56;20.20;99.90
34829;DHT22;21042;47.620;12.188;2023-07-28T09:04:26;20.20;99.90
34829;DHT22;21042;47.620;12.188;2023-07-28T09:06:52;20.20;99.90
34829;DHT22;21042;47.620;12.188;2023-07-28T09:09:22;20.30;99.90
34829;DHT22;21042;47.620;12.188;2023-07-28T09:11:53;20.40;99.90
34829;DHT22;21042;47.620;12.188;2023-07-28T09:14:21;20.70;99.90
34829;DHT22;21042;47.620;12.188;2023-07-28T09:16:50;20.90;99.90
34829;DHT22;21042;47.620;12.188;2023-07-28T09:19:17;21.00;99.90
34829;DHT22;21042;47.620;12.188;2023-07-28T09:21:44;21.00;99.90
34829;DHT22;21042;47.620;12.188;2023-07-28T09:24:14;21.20;99.90
34829;DHT22;21042;47.620;12.188;2023-07-28T09:26:47;21.20;99.90
34829;DHT22;21042;47.620;12.188;2023-07-28T09:29:17;21.60;99.90
34829;DHT22;21042;47.620;12.188;2023-07-28T09:31:45;21.90;99.90
34829;DHT22;21042;47.620;12.188;2023-07-28T09:34:13;22.20;99.90
34829;DHT22;21042;47.620;12.188;2023-07-28T09:36:49;22.40;99.90
34829;DHT22;21042;47.620;12.188;2023-07-28T09:39:18;22.30;99.90
34829;DHT22;21042;47.620;12.188;2023-07-28T09:41:46;22.30;99.90
34829;DHT22;21042;47.620;12.188;2023-07-28T09:44:13;22.60;99.90
34829;DHT22;21042;47.620;12.188;2023-07-28T09:46:50;22.80;99.90
34829;DHT22;21042;47.620;12.188;2023-07-28T09:49:37;22.80;99.90
34829;DHT22;21042;47.620;12.188;2023-07-28T09:52:08;23.10;99.90
34829;DHT22;21042;47.620;12.188;2023-07-28T09:54:40;23.30;99.90
34829;DHT22;21042;47.620;12.188;2023-07-28T09:57:13;23.10;99.90
34829;DHT22;21042;47.620;12.188;2023-07-28T09:59:41;22.80;99.90
34829;DHT22;21042;47.620;12.188;2023-07-28T10:02:09;23.00;99.90
34829;DHT22;21042;47.620;12.188;2023-07-28T10:04:37;23.10;99.90
34829;DHT22;21042;47.620;12.188;2023-07-28T10:07:05;23.50;99.90
34829;DHT22;21042;47.620;12.188;2023-07-28T10:09:32;24.00;99.90
34829;DHT22;21042;47.620;12.188;2023-07-28T10:12:01;24.10;99.90
34829;DHT22;21042;47.620;12.188;2023-07-28T10:14:34;23.70;99.90
34829;DHT22;21042;47.620;12.188;2023-07-28T10:17:01;23.20;99.90
34829;DHT22;21042;47.620;12.188;2023-07-28T10:19:38;22.80;99.90
34829;DHT22;21042;47.620;12.188;2023-07-28T10:22:11;22.60;99.90
34829;DHT22;21042;47.620;12.188;2023-07-28T10:24:55;22.40;99.90
34829;DHT22;21042;47.620;12.188;2023-07-28T10:27:35;22.30;99.90
34829;DHT22;21042;47.620;12.188;2023-07-28T10:30:14;22.50;99.90
34829;DHT22;21042;47.620;12.188;2023-07-28T10:32:47;22.70;99.90
34829;DHT22;21042;47.620;12.188;2023-07-28T10:37:48;23.30;99.90
34829;DHT22;21042;47.620;12.188;2023-07-28T10:42:50;23.90;99.90
34829;DHT22;21042;47.620;12.188;2023-07-28T10:45:17;24.20;99.90
34829;DHT22;21042;47.620;12.188;2023-07-28T10:47:45;24.10;99.90
34829;DHT22;21042;47.620;12.188;2023-07-28T10:50:12;24.30;99.90
34829;DHT22;21042;47.620;12.188;2023-07-28T10:52:43;24.30;99.90
34829;DHT22;21042;47.620;12.188;2023-07-28T10:55:18;24.20;99.90
34829;DHT22;21042;47.620;12.188;2023-07-28T10:57:48;24.30;99.90
34829;DHT22;21042;47.620;12.188;2023-07-28T11:00:17;24.20;99.90
34829;DHT22;21042;47.620;12.188;2023-07-28T11:02:45;24.20;99.90
34829;DHT22;21042;47.620;12.188;2023-07-28T11:05:23;24.40;99.90
34829;DHT22;21042;47.620;12.188;2023-07-28T11:07:54;24.70;99.90
34829;DHT22;21042;47.620;12.188;2023-07-28T11:10:21;24.70;99.90
34829;DHT22;21042;47.620;12.188;2023-07-28T11:12:48;24.60;99.90
34829;DHT22;21042;47.620;12.188;2023-07-28T11:15:16;24.60;99.90
34829;DHT22;21042;47.620;12.188;2023-07-28T11:17:49;24.60;99.90
34829;DHT22;21042;47.620;12.188;2023-07-28T11:20:23;24.60;99.90
34829;DHT22;21042;47.620;12.188;2023-07-28T11:22:58;24.60;99.90
34829;DHT22;21042;47.620;12.188;2023-07-28T11:25:27;24.90;99.90
34829;DHT22;21042;47.620;12.188;2023-07-28T11:27:54;25.50;99.90
34829;DHT22;21042;47.620;12.188;2023-07-28T11:30:24;25.80;99.90
34829;DHT22;21042;47.620;12.188;2023-07-28T11:32:51;25.70;99.90
34829;DHT22;21042;47.620;12.188;2023-07-28T11:35:21;25.40;99.90
34829;DHT22;21042;47.620;12.188;2023-07-28T11:37:50;25.00;99.90
34829;DHT22;21042;47.620;12.188;2023-07-28T11:40:19;24.60;99.90
34829;DHT22;21042;47.620;12.188;2023-07-28T11:42:49;24.20;99.90
34829;DHT22;21042;47.620;12.188;2023-07-28T11:45:17;23.90;99.90
34829;DHT22;21042;47.620;12.188;2023-07-28T11:47:59;23.50;99.90
34829;DHT22;21042;47.620;12.188;2023-07-28T11:50:28;23.50;99.90
34829;DHT22;21042;47.620;12.188;2023-07-28T11:52:59;23.50;99.90
34829;DHT22;21042;47.620;12.188;2023-07-28T11:55:26;23.50;99.90
34829;DHT22;21042;47.620;12.188;2023-07-28T11:57:53;23.50;99.90
34829;DHT22;21042;47.620;12.188;2023-07-28T12:00:39;23.40;99.90
34829;DHT22;21042;47.620;12.188;2023-07-28T12:03:08;23.30;99.90
34829;DHT22;21042;47.620;12.188;2023-07-28T12:05:40;23.20;99.90
34829;DHT22;21042;47.620;12.188;2023-07-28T12:08:10;23.20;99.90
34829;DHT22;21042;47.620;12.188;2023-07-28T12:10:49;23.20;99.90
34829;DHT22;21042;47.620;12.188;2023-07-28T12:13:52;23.30;99.90
34829;DHT22;21042;47.620;12.188;2023-07-28T12:16:41;23.40;99.90
34829;DHT22;21042;47.620;12.188;2023-07-28T12:19:13;23.50;99.90
34829;DHT22;21042;47.620;12.188;2023-07-28T12:21:40;23.70;99.90
34829;DHT22;21042;47.620;12.188;2023-07-28T12:24:07;23.90;99.90
34829;DHT22;21042;47.620;12.188;2023-07-28T12:26:35;24.00;99.90
34829;DHT22;21042;47.620;12.188;2023-07-28T12:29:06;24.10;99.90
34829;DHT22;21042;47.620;12.188;2023-07-28T12:31:35;24.30;99.90
34829;DHT22;21042;47.620;12.188;2023-07-28T12:34:05;24.40;99.90
34829;DHT22;21042;47.620;12.188;2023-07-28T12:36:32;24.30;99.90
34829;DHT22;21042;47.620;12.188;2023-07-28T12:39:19;24.60;99.90
34829;DHT22;21042;47.620;12.188;2023-07-28T12:41:49;24.50;99.90
34829;DHT22;21042;47.620;12.188;2023-07-28T12:44:37;24.20;99.90
34829;DHT22;21042;47.620;12.188;2023-07-28T12:47:07;24.10;99.90
34829;DHT22;21042;47.620;12.188;2023-07-28T12:49:34;24.00;99.90
34829;DHT22;21042;47.620;12.188;2023-07-28T12:52:03;23.80;99.90
34829;DHT22;21042;47.620;12.188;2023-07-28T12:54:31;23.90;99.90
34829;DHT22;21042;47.620;12.188;2023-07-28T12:57:10;23.90;99.90
34829;DHT22;21042;47.620;12.188;2023-07-28T12:59:39;23.90;99.90
34829;DHT22;21042;47.620;12.188;2023-07-28T13:02:09;23.90;99.90
34829;DHT22;21042;47.620;12.188;2023-07-28T13:04:35;23.90;99.90
34829;DHT22;21042;47.620;12.188;2023-07-28T13:07:02;24.00;99.90
34829;DHT22;21042;47.620;12.188;2023-07-28T13:09:32;23.90;99.90
34829;DHT22;21042;47.620;12.188;2023-07-28T13:12:02;23.80;99.90
34829;DHT22;21042;47.620;12.188;2023-07-28T13:14:33;23.80;99.90
34829;DHT22;21042;47.620;12.188;2023-07-28T13:17:00;23.70;99.90
34829;DHT22;21042;47.620;12.188;2023-07-28T13:19:26;23.60;99.90
34829;DHT22;21042;47.620;12.188;2023-07-28T13:21:53;23.40;99.90
34829;DHT22;21042;47.620;12.188;2023-07-28T13:24:20;23.30;99.90
34829;DHT22;21042;47.620;12.188;2023-07-28T13:26:46;23.20;99.90
34829;DHT22;21042;47.620;12.188;2023-07-28T13:29:13;23.20;99.90
34829;DHT22;21042;47.620;12.188;2023-07-28T13:31:40;23.10;99.90
34829;DHT22;21042;47.620;12.188;2023-07-28T13:34:07;23.10;99.90
34829;DHT22;21042;47.620;12.188;2023-07-28T13:36:33;23.10;99.90
34829;DHT22;21042;47.620;12.188;2023-07-28T13:39:00;23.20;99.90
34829;DHT22;21042;47.620;12.188;2023-07-28T13:41:27;23.30;99.90
34829;DHT22;21042;47.620;12.188;2023-07-28T13:43:54;23.40;99.90
34829;DHT22;21042;47.620;12.188;2023-07-28T13:46:28;23.40;99.90
34829;DHT22;21042;47.620;12.188;2023-07-28T13:48:55;23.30;99.90
34829;DHT22;21042;47.620;12.188;2023-07-28T13:51:22;23.30;99.90
34829;DHT22;21042;47.620;12.188;2023-07-28T13:54:10;23.30;99.90
34829;DHT22;21042;47.620;12.188;2023-07-28T13:56:39;23.10;99.90
34829;DHT22;21042;47.620;12.188;2023-07-28T13:59:26;23.00;99.90
34829;DHT22;21042;47.620;12.188;2023-07-28T14:01:53;23.00;99.90
34829;DHT22;21042;47.620;12.188;2023-07-28T14:04:21;23.00;99.90
34829;DHT22;21042;47.620;12.188;2023-07-28T14:06:48;22.80;99.90
34829;DHT22;21042;47.620;12.188;2023-07-28T14:09:14;22.70;99.90
34829;DHT22;21042;47.620;12.188;2023-07-28T14:11:41;22.70;99.90
34829;DHT22;21042;47.620;12.188;2023-07-28T14:14:08;22.60;99.90
34829;DHT22;21042;47.620;12.188;2023-07-28T14:16:35;22.60;99.90
34829;DHT22;21042;47.620;12.188;2023-07-28T14:19:02;22.60;99.90
34829;DHT22;21042;47.620;12.188;2023-07-28T14:21:28;22.70;99.90
34829;DHT22;21042;47.620;12.188;2023-07-28T14:23:55;22.70;99.90
34829;DHT22;21042;47.620;12.188;2023-07-28T14:26:22;22.70;99.90
34829;DHT22;21042;47.620;12.188;2023-07-28T14:28:49;22.50;99.90
34829;DHT22;21042;47.620;12.188;2023-07-28T14:31:15;22.60;99.90
34829;DHT22;21042;47.620;12.188;2023-07-28T14:33:42;22.50;99.90
34829;DHT22;21042;47.620;12.188;2023-07-28T14:36:09;22.40;99.90
34829;DHT22;21042;47.620;12.188;2023-07-28T14:38:36;22.50;99.90
34829;DHT22;21042;47.620;12.188;2023-07-28T14:41:03;22.50;99.90
34829;DHT22;21042;47.620;12.188;2023-07-28T14:43:29;22.40;99.90
34829;DHT22;21042;47.620;12.188;2023-07-28T14:45:56;22.50;99.90
34829;DHT22;21042;47.620;12.188;2023-07-28T14:48:23;22.50;99.90
34829;DHT22;21042;47.620;12.188;2023-07-28T14:50:50;22.70;99.90
34829;DHT22;21042;47.620;12.188;2023-07-28T14:53:30;22.90;99.90
34829;DHT22;21042;47.620;12.188;2023-07-28T14:55:58;23.00;99.90
34829;DHT22;21042;47.620;12.188;2023-07-28T14:58:25;23.00;99.90
34829;DHT22;21042;47.620;12.188;2023-07-28T15:00:52;23.00;99.90
34829;DHT22;21042;47.620;12.188;2023-07-28T15:03:19;23.10;99.90
34829;DHT22;21042;47.620;12.188;2023-07-28T15:05:46;23.10;99.90
34829;DHT22;21042;47.620;12.188;2023-07-28T15:08:13;23.00;99.90
34829;DHT22;21042;47.620;12.188;2023-07-28T15:10:41;22.90;99.90
34829;DHT22;21042;47.620;12.188;2023-07-28T15:13:08;22.80;99.90
34829;DHT22;21042;47.620;12.188;2023-07-28T15:15:35;22.70;99.90
34829;DHT22;21042;47.620;12.188;2023-07-28T15:18:02;22.80;99.90
34829;DHT22;21042;47.620;12.188;2023-07-28T15:20:29;23.00;99.90
34829;DHT22;21042;47.620;12.188;2023-07-28T15:22:56;23.30;99.90
34829;DHT22;21042;47.620;12.188;2023-07-28T15:25:23;23.60;99.90
34829;DHT22;21042;47.620;12.188;2023-07-28T15:27:49;24.10;99.90
34829;DHT22;21042;47.620;12.188;2023-07-28T15:30:16;24.90;99.90
34829;DHT22;21042;47.620;12.188;2023-07-28T15:32:43;25.60;99.90
34829;DHT22;21042;47.620;12.188;2023-07-28T15:35:10;26.30;99.90
34829;DHT22;21042;47.620;12.188;2023-07-28T15:37:37;26.20;99.90